Typhoon — UDVO — position and weather

sailwx.info

Track history (hours):
 
Tides and Currents Weather Stations Pressure Air Temp Water Temp Dewpoint Dewpoint Depression Visibility Wind Speed Wind Dir Waves Ship Positions

Typhoon

Last reported at 2018-Jun-22 08:29 UTC. Time now 2018-Jun-22 08:50 UTC.
Position N 59°53' E 030°11'.

Length 30 m.

Type: Tug. MMSI: 273317680.

Date/timePositionNaut miles runAvg speedWind from/ knotsBaromVisibWave heightAir tempDewpointWater temp
2018-Jun-22 08:29N 59°53' E 030°11'2 4.8
2018-Jun-22 08:00N 59°55' E 030°14'0 0.2
2018-Jun-22 06:43N 59°55' E 030°13'0 0.0
2018-Jun-22 06:26N 59°55' E 030°13'0 0.0
2018-Jun-22 05:53N 59°55' E 030°13'0 0.0
2018-Jun-22 05:29N 59°55' E 030°13'0 0.0
2018-Jun-22 04:59N 59°55' E 030°13'0 0.0
2018-Jun-22 04:29N 59°55' E 030°13'0 0.0
2018-Jun-22 03:59N 59°55' E 030°13'0 0.0
2018-Jun-22 03:29N 59°55' E 030°13'0 0.0
2018-Jun-22 02:59N 59°55' E 030°13'0 0.0
2018-Jun-22 02:26N 59°55' E 030°13'0 0.0
2018-Jun-22 01:59N 59°55' E 030°13'0 0.0
2018-Jun-22 01:29N 59°55' E 030°13'0 0.0
2018-Jun-22 00:56N 59°55' E 030°13'0 0.0
2018-Jun-22 00:29N 59°55' E 030°13'0 0.0
2018-Jun-21 23:59N 59°55' E 030°13'0 0.0
2018-Jun-21 23:29N 59°55' E 030°13'0 0.0
2018-Jun-21 22:59N 59°55' E 030°13'0 0.0
2018-Jun-21 22:29N 59°55' E 030°13'0 0.0
2018-Jun-21 21:56N 59°55' E 030°13'0 0.0
2018-Jun-21 21:29N 59°55' E 030°13'0 0.5
2018-Jun-21 21:00N 59°55' E 030°14'2 3.2
2018-Jun-21 20:30N 59°53' E 030°12'0 0.0
2018-Jun-21 19:57N 59°53' E 030°12'2 4.0
2018-Jun-21 19:29N 59°55' E 030°14'0 0.7
2018-Jun-21 19:00N 59°55' E 030°13'0 0.0
2018-Jun-21 18:30N 59°55' E 030°13'0 0.0
2018-Jun-21 18:00N 59°55' E 030°13'0 0.4
2018-Jun-21 17:30N 59°54' E 030°14'2 4.1
2018-Jun-21 16:59N 59°53' E 030°12'0 0.7
2018-Jun-21 16:30N 59°52' E 030°12'1 2.7
2018-Jun-21 16:00N 59°54' E 030°13'1 1.9
2018-Jun-21 15:30N 59°55' E 030°13'0 0.0
2018-Jun-21 14:57N 59°55' E 030°13'0 0.0
2018-Jun-21 14:30N 59°55' E 030°13'0 0.0
2018-Jun-21 14:00N 59°55' E 030°13'0 0.0
2018-Jun-21 13:27N 59°55' E 030°13'0 0.0
2018-Jun-21 12:57N 59°55' E 030°13'0 0.0
2018-Jun-21 12:30N 59°55' E 030°13'0 0.0
2018-Jun-21 12:00N 59°55' E 030°13'0 0.0
2018-Jun-21 11:18N 59°55' E 030°13'0 0.0
2018-Jun-21 11:00N 59°55' E 030°13'0 0.0
2018-Jun-21 10:30N 59°55' E 030°13'0 0.0
2018-Jun-21 10:00N 59°55' E 030°13'0 0.0
2018-Jun-21 08:51N 59°55' E 030°13'0 0.0
2018-Jun-21 08:30N 59°55' E 030°13'0 0.0
2018-Jun-21 07:58N 59°55' E 030°13'0 0.0
2018-Jun-21 07:12N 59°55' E 030°13'0 0.0
2018-Jun-21 07:00N 59°55' E 030°13'0 0.0
2018-Jun-21 06:27N 59°55' E 030°13'0 0.0
2018-Jun-21 06:00N 59°55' E 030°13'0 0.0
2018-Jun-21 05:30N 59°55' E 030°13'0 0.0
2018-Jun-21 04:54N 59°55' E 030°13'0 0.0
2018-Jun-21 04:30N 59°55' E 030°13'1 2.3
2018-Jun-21 03:59N 59°53' E 030°12'1 1.9
2018-Jun-21 03:30N 59°53' E 030°11'0 0.5
2018-Jun-21 02:58N 59°53' E 030°11'0 0.4
2018-Jun-21 02:30N 59°53' E 030°11'2 2.2
2018-Jun-21 01:39N 59°55' E 030°13'0 0.1
2018-Jun-21 01:27N 59°55' E 030°13'0 0.0
2018-Jun-21 00:57N 59°55' E 030°13'0 0.0
2018-Jun-21 00:27N 59°55' E 030°13'0 0.0
2018-Jun-20 23:54N 59°55' E 030°13'0 0.0
2018-Jun-20 23:28N 59°55' E 030°13'0 0.8
2018-Jun-20 23:00N 59°55' E 030°14'2 4.5
2018-Jun-20 22:30N 59°53' E 030°11'11 3.2
2018-Jun-20 19:15N 59°57' E 029°52'2 0.6
2018-Jun-20 15:53N 59°58' E 029°48'4 9.5
2018-Jun-20 15:30N 59°56' E 029°54'5 9.7
2018-Jun-20 15:00N 59°55' E 030°03'4 7.0
2018-Jun-20 14:30N 59°53' E 030°10'0 0.3
2018-Jun-20 14:00N 59°53' E 030°10'2 4.9
2018-Jun-20 13:30N 59°55' E 030°14'0 0.2
2018-Jun-20 12:27N 59°55' E 030°13'0 0.0
2018-Jun-20 12:00N 59°55' E 030°13'0 0.0
2018-Jun-20 11:30N 59°55' E 030°13'0 0.0
2018-Jun-20 10:57N 59°55' E 030°13'0 0.0
2018-Jun-20 10:25N 59°55' E 030°13'0 0.0
2018-Jun-20 09:00N 59°55' E 030°13'0 0.0
2018-Jun-20 08:24N 59°55' E 030°13'1 2.7
2018-Jun-20 07:57N 59°53' E 030°13'1 0.4
2018-Jun-20 06:31N 59°54' E 030°14'0 0.0
2018-Jun-20 06:28N 59°54' E 030°14'1 1.6
2018-Jun-20 06:00N 59°55' E 030°14'0 0.4
2018-Jun-20 05:29N 59°55' E 030°13'0 0.0
2018-Jun-20 04:59N 59°55' E 030°13'0 0.0
2018-Jun-20 04:29N 59°55' E 030°13'0 0.0
2018-Jun-20 03:53N 59°55' E 030°13'0 0.0
2018-Jun-20 03:26N 59°55' E 030°13'0 0.0
2018-Jun-20 02:50N 59°55' E 030°13'0 0.0
2018-Jun-20 02:26N 59°55' E 030°13'0 0.0
2018-Jun-20 01:56N 59°55' E 030°13'0 0.0
2018-Jun-20 01:20N 59°55' E 030°13'0 0.0
2018-Jun-20 00:44N 59°55' E 030°13'0 0.0
2018-Jun-20 00:26N 59°55' E 030°13'0 0.0
2018-Jun-19 23:59N 59°55' E 030°13'0 0.0
2018-Jun-19 23:29N 59°55' E 030°13'0 0.0
2018-Jun-19 22:56N 59°55' E 030°13'0 0.0
2018-Jun-19 22:29N 59°55' E 030°13'2 3.6
2018-Jun-19 21:57N 59°53' E 030°12'0 0.3
2018-Jun-19 21:30N 59°53' E 030°12'1 1.3
2018-Jun-19 21:00N 59°52' E 030°12'2 4.7
2018-Jun-19 20:30N 59°54' E 030°14'0 0.4
2018-Jun-19 19:58N 59°55' E 030°13'0 0.0
2018-Jun-19 19:28N 59°55' E 030°13'0 0.0
2018-Jun-19 18:58N 59°55' E 030°13'0 0.0
2018-Jun-19 18:28N 59°55' E 030°13'0 0.0
2018-Jun-19 17:58N 59°55' E 030°13'0 0.0
2018-Jun-19 17:28N 59°55' E 030°13'0 0.0
2018-Jun-19 16:58N 59°55' E 030°13'0 0.0
2018-Jun-19 16:28N 59°55' E 030°13'0 0.0
2018-Jun-19 15:58N 59°55' E 030°13'0 0.2
2018-Jun-19 15:30N 59°55' E 030°13'2 3.9
2018-Jun-19 15:00N 59°53' E 030°12'0 0.3
2018-Jun-19 14:30N 59°53' E 030°12'2 4.3
2018-Jun-19 14:00N 59°55' E 030°14'0 0.4
2018-Jun-19 13:30N 59°55' E 030°13'0 0.0
2018-Jun-19 12:57N 59°55' E 030°13'0 0.0
2018-Jun-19 12:27N 59°55' E 030°13'0 0.0
2018-Jun-19 12:00N 59°55' E 030°13'0 0.0
2018-Jun-19 11:30N 59°55' E 030°13'0 0.0
2018-Jun-19 11:00N 59°55' E 030°13'0 0.0
2018-Jun-19 10:27N 59°55' E 030°13'0 0.0
2018-Jun-19 10:00N 59°55' E 030°13'0 0.0
2018-Jun-19 09:30N 59°55' E 030°13'0 0.0
2018-Jun-19 08:57N 59°55' E 030°13'0 0.0
2018-Jun-19 08:30N 59°55' E 030°13'0 0.0
2018-Jun-19 08:00N 59°55' E 030°13'0 0.4
2018-Jun-19 07:30N 59°54' E 030°14'1 2.7
2018-Jun-19 06:59N 59°53' E 030°12'0 1.0
2018-Jun-19 06:30N 59°54' E 030°13'1 1.9
2018-Jun-19 05:59N 59°55' E 030°13'0 0.0
2018-Jun-19 05:29N 59°55' E 030°13'0 0.0
2018-Jun-18 22:17N 59°55' E 030°13'0 0.0
2018-Jun-18 21:59N 59°55' E 030°13'0 0.0
2018-Jun-18 21:29N 59°55' E 030°13'0 0.0
2018-Jun-18 20:53N 59°55' E 030°13'0 0.0
2018-Jun-18 20:29N 59°55' E 030°13'0 0.0
2018-Jun-18 19:59N 59°55' E 030°13'0 0.0
2018-Jun-18 19:29N 59°55' E 030°13'0 0.0
2018-Jun-18 18:59N 59°55' E 030°13'0 0.0
2018-Jun-18 18:29N 59°55' E 030°13'0 0.0
2018-Jun-18 17:59N 59°55' E 030°13'0 0.0
2018-Jun-18 17:26N 59°55' E 030°13'0 0.0
2018-Jun-18 16:59N 59°55' E 030°13'0 0.0
2018-Jun-18 16:26N 59°55' E 030°13'0 0.0
2018-Jun-18 15:59N 59°55' E 030°13'0 0.0
2018-Jun-18 15:29N 59°55' E 030°13'0 0.0
2018-Jun-18 14:59N 59°55' E 030°13'0 0.0
2018-Jun-18 14:23N 59°55' E 030°13'0 0.0
2018-Jun-18 13:59N 59°55' E 030°13'0 0.0
2018-Jun-18 13:26N 59°55' E 030°13'0 0.0
2018-Jun-18 12:59N 59°55' E 030°13'0 0.0
2018-Jun-18 12:29N 59°55' E 030°13'0 0.0
2018-Jun-18 12:00N 59°55' E 030°13'0 0.0
2018-Jun-18 11:23N 59°55' E 030°13'0 0.0
2018-Jun-18 10:59N 59°55' E 030°13'0 0.0
2018-Jun-18 10:29N 59°55' E 030°13'0 0.0
2018-Jun-18 09:59N 59°55' E 030°13'0 0.0
2018-Jun-18 09:29N 59°55' E 030°13'0 0.5
2018-Jun-18 09:00N 59°55' E 030°14'1 2.2
2018-Jun-18 08:28N 59°54' E 030°13'0 0.0
2018-Jun-18 07:58N 59°54' E 030°13'1 2.0
2018-Jun-18 07:30N 59°55' E 030°13'0 0.0
2018-Jun-18 07:00N 59°55' E 030°13'0 0.0
2018-Jun-18 06:30N 59°55' E 030°13'0 0.0
2018-Jun-18 06:00N 59°55' E 030°13'0 0.0
2018-Jun-18 05:30N 59°55' E 030°13'0 0.0
2018-Jun-18 04:57N 59°55' E 030°13'0 0.5
2018-Jun-18 04:30N 59°54' E 030°14'2 4.4
2018-Jun-18 03:59N 59°53' E 030°10'1 1.3
2018-Jun-18 03:27N 59°54' E 030°09'2 3.8
2018-Jun-18 03:00N 59°53' E 030°12'1 2.6
2018-Jun-18 02:28N 59°55' E 030°13'0 0.0
2018-Jun-18 01:58N 59°55' E 030°13'0 0.0
2018-Jun-18 01:28N 59°55' E 030°13'0 0.0
2018-Jun-18 00:58N 59°55' E 030°13'0 0.0
2018-Jun-18 00:22N 59°55' E 030°13'0 0.0
2018-Jun-17 23:58N 59°55' E 030°13'0 0.0
2018-Jun-17 23:25N 59°55' E 030°13'0 0.0
2018-Jun-17 22:58N 59°55' E 030°13'0 0.0
2018-Jun-17 22:28N 59°55' E 030°13'0 0.0
2018-Jun-17 21:58N 59°55' E 030°13'0 0.0
2018-Jun-17 21:28N 59°55' E 030°13'0 0.0
2018-Jun-17 20:58N 59°55' E 030°13'0 0.0
2018-Jun-17 20:28N 59°55' E 030°13'0 0.0
2018-Jun-17 19:58N 59°55' E 030°13'0 0.0
2018-Jun-17 19:28N 59°55' E 030°13'0 0.0
2018-Jun-17 18:55N 59°55' E 030°13'0 0.0
2018-Jun-17 18:25N 59°55' E 030°13'0 0.0
2018-Jun-17 18:00N 59°55' E 030°13'2 3.6
2018-Jun-17 17:28N 59°53' E 030°11'0 0.3
2018-Jun-17 17:00N 59°53' E 030°11'1 2.1
2018-Jun-17 16:29N 59°53' E 030°13'0 0.3
2018-Jun-17 15:59N 59°53' E 030°13'1 2.2
2018-Jun-17 15:27N 59°53' E 030°11'1 1.9
2018-Jun-17 15:00N 59°53' E 030°10'0 0.1
2018-Jun-17 14:30N 59°53' E 030°10'2 3.9
2018-Jun-17 13:58N 59°55' E 030°13'0 0.0
2018-Jun-17 13:28N 59°55' E 030°13'0 0.0
2018-Jun-17 12:58N 59°55' E 030°13'0 0.0
2018-Jun-17 12:28N 59°55' E 030°13'0 0.0
2018-Jun-17 11:58N 59°55' E 030°13'0 0.0
2018-Jun-17 11:28N 59°55' E 030°13'0 0.0
2018-Jun-17 10:58N 59°55' E 030°13'0 0.0
2018-Jun-17 10:31N 59°55' E 030°13'0 0.5
2018-Jun-17 10:00N 59°54' E 030°14'2 3.4
2018-Jun-17 09:27N 59°53' E 030°12'0 0.6
2018-Jun-17 08:50N 59°53' E 030°11'1 2.3
2018-Jun-17 08:28N 59°53' E 030°12'1 3.0
2018-Jun-17 08:00N 59°55' E 030°13'0 0.2
2018-Jun-17 07:23N 59°55' E 030°13'0 0.0
2018-Jun-17 06:59N 59°55' E 030°13'0 0.0
2018-Jun-17 06:29N 59°55' E 030°13'0 0.0
2018-Jun-17 05:59N 59°55' E 030°13'0 0.0
2018-Jun-17 05:29N 59°55' E 030°13'0 0.0
2018-Jun-17 04:59N 59°55' E 030°13'0 0.0
2018-Jun-17 04:29N 59°55' E 030°13'0 0.0
2018-Jun-17 03:59N 59°55' E 030°13'0 0.0
2018-Jun-17 03:29N 59°55' E 030°13'0 0.0
2018-Jun-17 02:56N 59°55' E 030°13'0 0.0
2018-Jun-17 02:26N 59°55' E 030°13'0 0.0
2018-Jun-17 01:59N 59°55' E 030°13'0 0.0
2018-Jun-17 01:29N 59°55' E 030°13'0 0.0
2018-Jun-17 00:59N 59°55' E 030°13'0 0.0
2018-Jun-17 00:29N 59°55' E 030°13'0 0.0
2018-Jun-16 23:56N 59°55' E 030°13'0 0.0
2018-Jun-16 23:29N 59°55' E 030°13'0 0.0
2018-Jun-16 22:59N 59°55' E 030°13'0 0.0
2018-Jun-16 22:29N 59°55' E 030°13'0 0.0
2018-Jun-16 21:59N 59°55' E 030°13'0 0.0
2018-Jun-16 21:29N 59°55' E 030°13'0 0.0
2018-Jun-16 20:59N 59°55' E 030°13'0 0.0
2018-Jun-16 20:29N 59°55' E 030°13'0 0.0
2018-Jun-16 19:56N 59°55' E 030°13'0 0.0
2018-Jun-16 19:26N 59°55' E 030°13'0 0.0
2018-Jun-16 19:00N 59°55' E 030°13'0 0.0
2018-Jun-16 18:29N 59°55' E 030°13'0 0.0
2018-Jun-16 18:00N 59°55' E 030°13'0 0.0
2018-Jun-16 17:30N 59°55' E 030°13'0 0.0
2018-Jun-16 16:59N 59°55' E 030°13'0 0.0
2018-Jun-16 16:29N 59°55' E 030°13'0 0.0
2018-Jun-16 15:59N 59°55' E 030°13'0 0.0
2018-Jun-16 15:29N 59°55' E 030°13'0 0.0
2018-Jun-16 14:59N 59°55' E 030°13'0 0.0
2018-Jun-16 14:29N 59°55' E 030°13'0 0.0
2018-Jun-16 13:59N 59°55' E 030°13'0 0.0
2018-Jun-16 13:29N 59°55' E 030°13'0 0.0
2018-Jun-16 12:59N 59°55' E 030°13'0 0.0
2018-Jun-16 12:30N 59°55' E 030°13'1 2.7
2018-Jun-16 11:56N 59°53' E 030°12'1 1.3
2018-Jun-16 11:30N 59°53' E 030°11'0 0.8
2018-Jun-16 11:00N 59°53' E 030°12'2 4.0
2018-Jun-16 10:29N 59°55' E 030°14'0 0.5
2018-Jun-16 10:00N 59°55' E 030°13'0 0.0
2018-Jun-16 09:30N 59°55' E 030°13'0 0.0
2018-Jun-16 09:00N 59°55' E 030°13'0 0.0
2018-Jun-16 08:30N 59°55' E 030°13'0 0.0
2018-Jun-16 08:00N 59°55' E 030°13'0 0.0
2018-Jun-16 07:30N 59°55' E 030°13'0 0.0
2018-Jun-16 07:00N 59°55' E 030°13'0 0.0
2018-Jun-16 06:27N 59°55' E 030°13'0 0.0
2018-Jun-16 06:00N 59°55' E 030°13'0 0.0
2018-Jun-16 05:30N 59°55' E 030°13'0 0.0
2018-Jun-16 04:57N 59°55' E 030°13'0 0.0
2018-Jun-16 04:24N 59°55' E 030°13'0 0.0
2018-Jun-16 04:00N 59°55' E 030°13'2 3.1
2018-Jun-16 03:23N 59°53' E 030°11'0 0.6
2018-Jun-16 02:55N 59°53' E 030°11'1 1.9
2018-Jun-16 02:29N 59°53' E 030°10'2 4.3
2018-Jun-16 01:57N 59°55' E 030°14'0 0.4
2018-Jun-16 01:29N 59°55' E 030°13'0 0.0
2018-Jun-16 00:59N 59°55' E 030°13'0 0.0
2018-Jun-16 00:23N 59°55' E 030°13'0 0.0
2018-Jun-15 23:53N 59°55' E 030°13'0 0.0
2018-Jun-15 23:20N 59°55' E 030°13'0 0.0
2018-Jun-15 22:35N 59°55' E 030°13'0 0.0
2018-Jun-15 22:29N 59°55' E 030°13'0 0.0
2018-Jun-15 21:41N 59°55' E 030°13'0 0.0
2018-Jun-15 21:26N 59°55' E 030°13'0 0.0
2018-Jun-15 20:59N 59°55' E 030°13'0 0.0
2018-Jun-15 20:20N 59°55' E 030°13'0 0.0
2018-Jun-15 19:47N 59°55' E 030°13'0 0.0
2018-Jun-15 19:29N 59°55' E 030°13'0 0.0
2018-Jun-15 18:50N 59°55' E 030°13'0 0.0
2018-Jun-15 18:29N 59°55' E 030°13'0 0.0
2018-Jun-15 17:59N 59°55' E 030°13'0 0.0
2018-Jun-15 17:26N 59°55' E 030°13'0 0.0
2018-Jun-15 16:59N 59°55' E 030°13'0 0.0
2018-Jun-15 16:17N 59°55' E 030°13'0 0.0
2018-Jun-15 15:56N 59°55' E 030°13'0 0.0
2018-Jun-15 15:23N 59°55' E 030°13'0 0.0
2018-Jun-15 14:51N 59°55' E 030°13'0 0.0
2018-Jun-15 14:23N 59°55' E 030°13'0 0.0
2018-Jun-15 13:50N 59°55' E 030°13'0 0.0
2018-Jun-15 13:29N 59°55' E 030°13'0 0.0
2018-Jun-15 12:59N 59°55' E 030°13'0 0.0
2018-Jun-15 12:26N 59°55' E 030°13'0 0.0
2018-Jun-15 11:59N 59°55' E 030°13'0 0.0
2018-Jun-15 11:29N 59°55' E 030°13'0 0.0
2018-Jun-15 10:59N 59°55' E 030°13'0 0.0
2018-Jun-15 10:29N 59°55' E 030°13'0 0.0
2018-Jun-15 09:59N 59°55' E 030°13'0 0.0
2018-Jun-15 09:29N 59°55' E 030°13'0 0.0
2018-Jun-15 08:59N 59°55' E 030°13'0 0.0
2018-Jun-15 08:29N 59°55' E 030°13'0 0.0
2018-Jun-15 07:59N 59°55' E 030°13'0 0.0
2018-Jun-15 07:29N 59°55' E 030°13'0 0.0
2018-Jun-15 06:59N 59°55' E 030°13'0 0.0
2018-Jun-15 06:23N 59°55' E 030°13'0 0.0
2018-Jun-15 05:59N 59°55' E 030°13'0 0.0
2018-Jun-15 05:25N 59°55' E 030°13'0 0.0
2018-Jun-15 04:59N 59°55' E 030°13'0 0.0
2018-Jun-15 04:29N 59°55' E 030°13'0 0.0
2018-Jun-15 03:56N 59°55' E 030°13'0 0.0
2018-Jun-15 03:29N 59°55' E 030°13'0 0.0
2018-Jun-15 02:59N 59°55' E 030°13'0 0.0
2018-Jun-15 02:29N 59°55' E 030°13'0 0.0
2018-Jun-15 01:59N 59°55' E 030°13'0 0.0
2018-Jun-15 01:23N 59°55' E 030°13'0 0.0
2018-Jun-15 00:56N 59°55' E 030°13'0 0.0
2018-Jun-15 00:29N 59°55' E 030°13'0 0.0
2018-Jun-14 23:59N 59°55' E 030°13'0 0.0
2018-Jun-14 23:26N 59°55' E 030°13'0 0.0
2018-Jun-14 22:56N 59°55' E 030°13'0 0.0
2018-Jun-14 22:23N 59°55' E 030°13'0 0.0
2018-Jun-14 21:59N 59°55' E 030°13'0 0.0
2018-Jun-14 21:26N 59°55' E 030°13'0 0.0
2018-Jun-14 21:00N 59°55' E 030°13'0 0.7
2018-Jun-14 20:28N 59°55' E 030°14'1 2.7
2018-Jun-14 20:00N 59°54' E 030°13'1 2.8
2018-Jun-14 19:29N 59°52' E 030°13'0 0.0
2018-Jun-14 19:00N 59°52' E 030°13'2 4.7
2018-Jun-14 18:30N 59°54' E 030°14'0 0.3
2018-Jun-14 17:57N 59°55' E 030°13'0 0.0
2018-Jun-14 17:27N 59°55' E 030°13'0 0.0
2018-Jun-14 17:00N 59°55' E 030°13'0 0.0
2018-Jun-14 16:30N 59°55' E 030°13'2 3.9
2018-Jun-14 16:00N 59°53' E 030°11'0 0.2
2018-Jun-14 15:26N 59°53' E 030°11'0 1.2
2018-Jun-14 15:00N 59°53' E 030°12'1 3.0
2018-Jun-14 14:31N 59°55' E 030°13'0 0.0
2018-Jun-14 13:54N 59°55' E 030°13'0 0.0
2018-Jun-14 13:30N 59°55' E 030°13'0 0.0
2018-Jun-14 12:57N 59°55' E 030°13'0 0.0
2018-Jun-14 12:30N 59°55' E 030°13'0 0.0
2018-Jun-14 12:00N 59°55' E 030°13'0 0.0
2018-Jun-14 10:27N 59°55' E 030°13'0 0.0
2018-Jun-14 09:51N 59°55' E 030°13'0 0.0
2018-Jun-14 09:24N 59°55' E 030°13'0 0.0
2018-Jun-14 09:00N 59°55' E 030°13'0 0.0
2018-Jun-14 06:09N 59°55' E 030°13'0 0.0
2018-Jun-14 05:39N 59°55' E 030°13'1 0.7
2018-Jun-14 04:55N 59°54' E 030°13'1 3.3
2018-Jun-14 04:30N 59°53' E 030°12'1 1.2
2018-Jun-14 03:52N 59°53' E 030°11'2 4.5
2018-Jun-14 03:29N 59°54' E 030°14'0 0.5
2018-Jun-14 02:55N 59°55' E 030°13'0 0.0
2018-Jun-14 02:28N 59°55' E 030°13'0 0.0
2018-Jun-14 01:58N 59°55' E 030°13'0 0.0
2018-Jun-14 01:22N 59°55' E 030°13'0 0.0
2018-Jun-14 00:04N 59°55' E 030°13'0 0.0
2018-Jun-13 23:46N 59°55' E 030°13'0 0.0
2018-Jun-13 22:49N 59°55' E 030°13'0 0.0
2018-Jun-13 22:19N 59°55' E 030°13'0 0.0
2018-Jun-13 21:58N 59°55' E 030°13'0 0.0
2018-Jun-13 15:38N 59°55' E 030°13'0 0.1
2018-Jun-13 14:36N 59°55' E 030°14'0 0.0
2018-Jun-13 14:18N 59°55' E 030°14'0 0.2
2018-Jun-13 13:30N 59°55' E 030°13'0 0.4
2018-Jun-13 12:59N 59°55' E 030°14'0 0.4
2018-Jun-13 12:24N 59°55' E 030°14'0 0.3
2018-Jun-13 10:56N 59°55' E 030°13'0 0.3
2018-Jun-13 10:17N 59°55' E 030°14'0 0.3
2018-Jun-13 09:58N 59°55' E 030°14'0 0.2
2018-Jun-13 09:14N 59°55' E 030°13'0 0.0
2018-Jun-13 08:50N 59°55' E 030°13'0 0.2
2018-Jun-13 07:53N 59°55' E 030°14'0 0.3
2018-Jun-13 07:25N 59°55' E 030°14'0 0.1
2018-Jun-13 06:31N 59°55' E 030°13'0 0.0
2018-Jun-13 06:25N 59°55' E 030°13'0 0.0
2018-Jun-13 05:00N 59°55' E 030°13'0 0.0
2018-Jun-13 04:28N 59°55' E 030°13'0 0.0
2018-Jun-13 04:00N 59°55' E 030°13'0 0.0
2018-Jun-13 03:22N 59°55' E 030°13'0 0.0
2018-Jun-13 02:50N 59°55' E 030°13'0 0.0
2018-Jun-13 02:18N 59°55' E 030°13'0 0.0
2018-Jun-13 01:17N 59°55' E 030°13'0 0.0
2018-Jun-13 00:36N 59°55' E 030°13'0 0.0
2018-Jun-13 00:22N 59°55' E 030°13'0 0.0
2018-Jun-12 23:03N 59°55' E 030°13'0 0.0
2018-Jun-12 22:52N 59°55' E 030°13'0 0.0
2018-Jun-12 22:19N 59°55' E 030°13'0 0.0
2018-Jun-12 19:07N 59°55' E 030°13'0 0.0
2018-Jun-12 18:42N 59°55' E 030°13'0 0.4
2018-Jun-12 18:12N 59°55' E 030°14'1 3.8
2018-Jun-12 18:00N 59°54' E 030°13'1 1.2
2018-Jun-12 17:27N 59°53' E 030°12'1 2.0
2018-Jun-12 16:56N 59°52' E 030°12'0 0.0
2018-Jun-12 16:14N 59°52' E 030°12'2 4.6
2018-Jun-12 15:48N 59°54' E 030°13'0 0.1
2018-Jun-12 10:34N 59°55' E 030°13'0 0.1
2018-Jun-12 09:41N 59°55' E 030°14'  
Track history (hours):
 
Tides and Currents Weather Stations Pressure Air Temp Water Temp Dewpoint Dewpoint Depression Visibility Wind Speed Wind Dir Waves Ship Positions

Typhoon

Last reported at 2018-Jun-22 08:29 UTC. Time now 2018-Jun-22 08:50 UTC.
Position N 59°53' E 030°11'.

Length 30 m.

Type: Tug. MMSI: 273317680.

Date/timePositionNaut miles runAvg speedWind from/ knotsBaromVisibWave heightAir tempDewpointWater temp
2018-Jun-22 08:29N 59°53' E 030°11'2 4.8
2018-Jun-22 08:00N 59°55' E 030°14'0 0.2
2018-Jun-22 06:43N 59°55' E 030°13'0 0.0
2018-Jun-22 06:26N 59°55' E 030°13'0 0.0
2018-Jun-22 05:53N 59°55' E 030°13'0 0.0
2018-Jun-22 05:29N 59°55' E 030°13'0 0.0
2018-Jun-22 04:59N 59°55' E 030°13'0 0.0
2018-Jun-22 04:29N 59°55' E 030°13'0 0.0
2018-Jun-22 03:59N 59°55' E 030°13'0 0.0
2018-Jun-22 03:29N 59°55' E 030°13'0 0.0
2018-Jun-22 02:59N 59°55' E 030°13'0 0.0
2018-Jun-22 02:26N 59°55' E 030°13'0 0.0
2018-Jun-22 01:59N 59°55' E 030°13'0 0.0
2018-Jun-22 01:29N 59°55' E 030°13'0 0.0
2018-Jun-22 00:56N 59°55' E 030°13'0 0.0
2018-Jun-22 00:29N 59°55' E 030°13'0 0.0
2018-Jun-21 23:59N 59°55' E 030°13'0 0.0
2018-Jun-21 23:29N 59°55' E 030°13'0 0.0
2018-Jun-21 22:59N 59°55' E 030°13'0 0.0
2018-Jun-21 22:29N 59°55' E 030°13'0 0.0
2018-Jun-21 21:56N 59°55' E 030°13'0 0.0
2018-Jun-21 21:29N 59°55' E 030°13'0 0.5
2018-Jun-21 21:00N 59°55' E 030°14'2 3.2
2018-Jun-21 20:30N 59°53' E 030°12'0 0.0
2018-Jun-21 19:57N 59°53' E 030°12'2 4.0
2018-Jun-21 19:29N 59°55' E 030°14'0 0.7
2018-Jun-21 19:00N 59°55' E 030°13'0 0.0
2018-Jun-21 18:30N 59°55' E 030°13'0 0.0
2018-Jun-21 18:00N 59°55' E 030°13'0 0.4
2018-Jun-21 17:30N 59°54' E 030°14'2 4.1
2018-Jun-21 16:59N 59°53' E 030°12'0 0.7
2018-Jun-21 16:30N 59°52' E 030°12'1 2.7
2018-Jun-21 16:00N 59°54' E 030°13'1 1.9
2018-Jun-21 15:30N 59°55' E 030°13'0 0.0
2018-Jun-21 14:57N 59°55' E 030°13'0 0.0
2018-Jun-21 14:30N 59°55' E 030°13'0 0.0
2018-Jun-21 14:00N 59°55' E 030°13'0 0.0
2018-Jun-21 13:27N 59°55' E 030°13'0 0.0
2018-Jun-21 12:57N 59°55' E 030°13'0 0.0
2018-Jun-21 12:30N 59°55' E 030°13'0 0.0
2018-Jun-21 12:00N 59°55' E 030°13'0 0.0
2018-Jun-21 11:18N 59°55' E 030°13'0 0.0
2018-Jun-21 11:00N 59°55' E 030°13'0 0.0
2018-Jun-21 10:30N 59°55' E 030°13'0 0.0
2018-Jun-21 10:00N 59°55' E 030°13'0 0.0
2018-Jun-21 08:51N 59°55' E 030°13'0 0.0
2018-Jun-21 08:30N 59°55' E 030°13'0 0.0
2018-Jun-21 07:58N 59°55' E 030°13'0 0.0
2018-Jun-21 07:12N 59°55' E 030°13'0 0.0
2018-Jun-21 07:00N 59°55' E 030°13'0 0.0
2018-Jun-21 06:27N 59°55' E 030°13'0 0.0
2018-Jun-21 06:00N 59°55' E 030°13'0 0.0
2018-Jun-21 05:30N 59°55' E 030°13'0 0.0
2018-Jun-21 04:54N 59°55' E 030°13'0 0.0
2018-Jun-21 04:30N 59°55' E 030°13'1 2.3
2018-Jun-21 03:59N 59°53' E 030°12'1 1.9
2018-Jun-21 03:30N 59°53' E 030°11'0 0.5
2018-Jun-21 02:58N 59°53' E 030°11'0 0.4
2018-Jun-21 02:30N 59°53' E 030°11'2 2.2
2018-Jun-21 01:39N 59°55' E 030°13'0 0.1
2018-Jun-21 01:27N 59°55' E 030°13'0 0.0
2018-Jun-21 00:57N 59°55' E 030°13'0 0.0
2018-Jun-21 00:27N 59°55' E 030°13'0 0.0
2018-Jun-20 23:54N 59°55' E 030°13'0 0.0
2018-Jun-20 23:28N 59°55' E 030°13'0 0.8
2018-Jun-20 23:00N 59°55' E 030°14'2 4.5
2018-Jun-20 22:30N 59°53' E 030°11'11 3.2
2018-Jun-20 19:15N 59°57' E 029°52'2 0.6
2018-Jun-20 15:53N 59°58' E 029°48'4 9.5
2018-Jun-20 15:30N 59°56' E 029°54'5 9.7
2018-Jun-20 15:00N 59°55' E 030°03'4 7.0
2018-Jun-20 14:30N 59°53' E 030°10'0 0.3
2018-Jun-20 14:00N 59°53' E 030°10'2 4.9
2018-Jun-20 13:30N 59°55' E 030°14'0 0.2
2018-Jun-20 12:27N 59°55' E 030°13'0 0.0
2018-Jun-20 12:00N 59°55' E 030°13'0 0.0
2018-Jun-20 11:30N 59°55' E 030°13'0 0.0
2018-Jun-20 10:57N 59°55' E 030°13'0 0.0
2018-Jun-20 10:25N 59°55' E 030°13'0 0.0
2018-Jun-20 09:00N 59°55' E 030°13'0 0.0
2018-Jun-20 08:24N 59°55' E 030°13'1 2.7
2018-Jun-20 07:57N 59°53' E 030°13'1 0.4
2018-Jun-20 06:31N 59°54' E 030°14'0 0.0
2018-Jun-20 06:28N 59°54' E 030°14'1 1.6
2018-Jun-20 06:00N 59°55' E 030°14'0 0.4
2018-Jun-20 05:29N 59°55' E 030°13'0 0.0
2018-Jun-20 04:59N 59°55' E 030°13'0 0.0
2018-Jun-20 04:29N 59°55' E 030°13'0 0.0
2018-Jun-20 03:53N 59°55' E 030°13'0 0.0
2018-Jun-20 03:26N 59°55' E 030°13'0 0.0
2018-Jun-20 02:50N 59°55' E 030°13'0 0.0
2018-Jun-20 02:26N 59°55' E 030°13'0 0.0
2018-Jun-20 01:56N 59°55' E 030°13'0 0.0
2018-Jun-20 01:20N 59°55' E 030°13'0 0.0
2018-Jun-20 00:44N 59°55' E 030°13'0 0.0
2018-Jun-20 00:26N 59°55' E 030°13'0 0.0
2018-Jun-19 23:59N 59°55' E 030°13'0 0.0
2018-Jun-19 23:29N 59°55' E 030°13'0 0.0
2018-Jun-19 22:56N 59°55' E 030°13'0 0.0
2018-Jun-19 22:29N 59°55' E 030°13'2 3.6
2018-Jun-19 21:57N 59°53' E 030°12'0 0.3
2018-Jun-19 21:30N 59°53' E 030°12'1 1.3
2018-Jun-19 21:00N 59°52' E 030°12'2 4.7
2018-Jun-19 20:30N 59°54' E 030°14'0 0.4
2018-Jun-19 19:58N 59°55' E 030°13'0 0.0
2018-Jun-19 19:28N 59°55' E 030°13'0 0.0
2018-Jun-19 18:58N 59°55' E 030°13'0 0.0
2018-Jun-19 18:28N 59°55' E 030°13'0 0.0
2018-Jun-19 17:58N 59°55' E 030°13'0 0.0
2018-Jun-19 17:28N 59°55' E 030°13'0 0.0
2018-Jun-19 16:58N 59°55' E 030°13'0 0.0
2018-Jun-19 16:28N 59°55' E 030°13'0 0.0
2018-Jun-19 15:58N 59°55' E 030°13'0 0.2
2018-Jun-19 15:30N 59°55' E 030°13'2 3.9
2018-Jun-19 15:00N 59°53' E 030°12'0 0.3
2018-Jun-19 14:30N 59°53' E 030°12'2 4.3
2018-Jun-19 14:00N 59°55' E 030°14'0 0.4
2018-Jun-19 13:30N 59°55' E 030°13'0 0.0
2018-Jun-19 12:57N 59°55' E 030°13'0 0.0
2018-Jun-19 12:27N 59°55' E 030°13'0 0.0
2018-Jun-19 12:00N 59°55' E 030°13'0 0.0
2018-Jun-19 11:30N 59°55' E 030°13'0 0.0
2018-Jun-19 11:00N 59°55' E 030°13'0 0.0
2018-Jun-19 10:27N 59°55' E 030°13'0 0.0
2018-Jun-19 10:00N 59°55' E 030°13'0 0.0
2018-Jun-19 09:30N 59°55' E 030°13'0 0.0
2018-Jun-19 08:57N 59°55' E 030°13'0 0.0
2018-Jun-19 08:30N 59°55' E 030°13'0 0.0
2018-Jun-19 08:00N 59°55' E 030°13'0 0.4
2018-Jun-19 07:30N 59°54' E 030°14'1 2.7
2018-Jun-19 06:59N 59°53' E 030°12'0 1.0
2018-Jun-19 06:30N 59°54' E 030°13'1 1.9
2018-Jun-19 05:59N 59°55' E 030°13'0 0.0
2018-Jun-19 05:29N 59°55' E 030°13'0 0.0
2018-Jun-18 22:17N 59°55' E 030°13'0 0.0
2018-Jun-18 21:59N 59°55' E 030°13'0 0.0
2018-Jun-18 21:29N 59°55' E 030°13'0 0.0
2018-Jun-18 20:53N 59°55' E 030°13'0 0.0
2018-Jun-18 20:29N 59°55' E 030°13'0 0.0
2018-Jun-18 19:59N 59°55' E 030°13'0 0.0
2018-Jun-18 19:29N 59°55' E 030°13'0 0.0
2018-Jun-18 18:59N 59°55' E 030°13'0 0.0
2018-Jun-18 18:29N 59°55' E 030°13'0 0.0
2018-Jun-18 17:59N 59°55' E 030°13'0 0.0
2018-Jun-18 17:26N 59°55' E 030°13'0 0.0
2018-Jun-18 16:59N 59°55' E 030°13'0 0.0
2018-Jun-18 16:26N 59°55' E 030°13'0 0.0
2018-Jun-18 15:59N 59°55' E 030°13'0 0.0
2018-Jun-18 15:29N 59°55' E 030°13'0 0.0
2018-Jun-18 14:59N 59°55' E 030°13'0 0.0
2018-Jun-18 14:23N 59°55' E 030°13'0 0.0
2018-Jun-18 13:59N 59°55' E 030°13'0 0.0
2018-Jun-18 13:26N 59°55' E 030°13'0 0.0
2018-Jun-18 12:59N 59°55' E 030°13'0 0.0
2018-Jun-18 12:29N 59°55' E 030°13'0 0.0
2018-Jun-18 12:00N 59°55' E 030°13'0 0.0
2018-Jun-18 11:23N 59°55' E 030°13'0 0.0
2018-Jun-18 10:59N 59°55' E 030°13'0 0.0
2018-Jun-18 10:29N 59°55' E 030°13'0 0.0
2018-Jun-18 09:59N 59°55' E 030°13'0 0.0
2018-Jun-18 09:29N 59°55' E 030°13'0 0.5
2018-Jun-18 09:00N 59°55' E 030°14'1 2.2
2018-Jun-18 08:28N 59°54' E 030°13'0 0.0
2018-Jun-18 07:58N 59°54' E 030°13'1 2.0
2018-Jun-18 07:30N 59°55' E 030°13'0 0.0
2018-Jun-18 07:00N 59°55' E 030°13'0 0.0
2018-Jun-18 06:30N 59°55' E 030°13'0 0.0
2018-Jun-18 06:00N 59°55' E 030°13'0 0.0
2018-Jun-18 05:30N 59°55' E 030°13'0 0.0
2018-Jun-18 04:57N 59°55' E 030°13'0 0.5
2018-Jun-18 04:30N 59°54' E 030°14'2 4.4
2018-Jun-18 03:59N 59°53' E 030°10'1 1.3
2018-Jun-18 03:27N 59°54' E 030°09'2 3.8
2018-Jun-18 03:00N 59°53' E 030°12'1 2.6
2018-Jun-18 02:28N 59°55' E 030°13'0 0.0
2018-Jun-18 01:58N 59°55' E 030°13'0 0.0
2018-Jun-18 01:28N 59°55' E 030°13'0 0.0
2018-Jun-18 00:58N 59°55' E 030°13'0 0.0
2018-Jun-18 00:22N 59°55' E 030°13'0 0.0
2018-Jun-17 23:58N 59°55' E 030°13'0 0.0
2018-Jun-17 23:25N 59°55' E 030°13'0 0.0
2018-Jun-17 22:58N 59°55' E 030°13'0 0.0
2018-Jun-17 22:28N 59°55' E 030°13'0 0.0
2018-Jun-17 21:58N 59°55' E 030°13'0 0.0
2018-Jun-17 21:28N 59°55' E 030°13'0 0.0
2018-Jun-17 20:58N 59°55' E 030°13'0 0.0
2018-Jun-17 20:28N 59°55' E 030°13'0 0.0
2018-Jun-17 19:58N 59°55' E 030°13'0 0.0
2018-Jun-17 19:28N 59°55' E 030°13'0 0.0
2018-Jun-17 18:55N 59°55' E 030°13'0 0.0
2018-Jun-17 18:25N 59°55' E 030°13'0 0.0
2018-Jun-17 18:00N 59°55' E 030°13'2 3.6
2018-Jun-17 17:28N 59°53' E 030°11'0 0.3
2018-Jun-17 17:00N 59°53' E 030°11'1 2.1
2018-Jun-17 16:29N 59°53' E 030°13'0 0.3
2018-Jun-17 15:59N 59°53' E 030°13'1 2.2
2018-Jun-17 15:27N 59°53' E 030°11'1 1.9
2018-Jun-17 15:00N 59°53' E 030°10'0 0.1
2018-Jun-17 14:30N 59°53' E 030°10'2 3.9
2018-Jun-17 13:58N 59°55' E 030°13'0 0.0
2018-Jun-17 13:28N 59°55' E 030°13'0 0.0
2018-Jun-17 12:58N 59°55' E 030°13'0 0.0
2018-Jun-17 12:28N 59°55' E 030°13'0 0.0
2018-Jun-17 11:58N 59°55' E 030°13'0 0.0
2018-Jun-17 11:28N 59°55' E 030°13'0 0.0
2018-Jun-17 10:58N 59°55' E 030°13'0 0.0
2018-Jun-17 10:31N 59°55' E 030°13'0 0.5
2018-Jun-17 10:00N 59°54' E 030°14'2 3.4
2018-Jun-17 09:27N 59°53' E 030°12'0 0.6
2018-Jun-17 08:50N 59°53' E 030°11'1 2.3
2018-Jun-17 08:28N 59°53' E 030°12'1 3.0
2018-Jun-17 08:00N 59°55' E 030°13'0 0.2
2018-Jun-17 07:23N 59°55' E 030°13'0 0.0
2018-Jun-17 06:59N 59°55' E 030°13'0 0.0
2018-Jun-17 06:29N 59°55' E 030°13'0 0.0
2018-Jun-17 05:59N 59°55' E 030°13'0 0.0
2018-Jun-17 05:29N 59°55' E 030°13'0 0.0
2018-Jun-17 04:59N 59°55' E 030°13'0 0.0
2018-Jun-17 04:29N 59°55' E 030°13'0 0.0
2018-Jun-17 03:59N 59°55' E 030°13'0 0.0
2018-Jun-17 03:29N 59°55' E 030°13'0 0.0
2018-Jun-17 02:56N 59°55' E 030°13'0 0.0
2018-Jun-17 02:26N 59°55' E 030°13'0 0.0
2018-Jun-17 01:59N 59°55' E 030°13'0 0.0
2018-Jun-17 01:29N 59°55' E 030°13'0 0.0
2018-Jun-17 00:59N 59°55' E 030°13'0 0.0
2018-Jun-17 00:29N 59°55' E 030°13'0 0.0
2018-Jun-16 23:56N 59°55' E 030°13'0 0.0
2018-Jun-16 23:29N 59°55' E 030°13'0 0.0
2018-Jun-16 22:59N 59°55' E 030°13'0 0.0
2018-Jun-16 22:29N 59°55' E 030°13'0 0.0
2018-Jun-16 21:59N 59°55' E 030°13'0 0.0
2018-Jun-16 21:29N 59°55' E 030°13'0 0.0
2018-Jun-16 20:59N 59°55' E 030°13'0 0.0
2018-Jun-16 20:29N 59°55' E 030°13'0 0.0
2018-Jun-16 19:56N 59°55' E 030°13'0 0.0
2018-Jun-16 19:26N 59°55' E 030°13'0 0.0
2018-Jun-16 19:00N 59°55' E 030°13'0 0.0
2018-Jun-16 18:29N 59°55' E 030°13'0 0.0
2018-Jun-16 18:00N 59°55' E 030°13'0 0.0
2018-Jun-16 17:30N 59°55' E 030°13'0 0.0
2018-Jun-16 16:59N 59°55' E 030°13'0 0.0
2018-Jun-16 16:29N 59°55' E 030°13'0 0.0
2018-Jun-16 15:59N 59°55' E 030°13'0 0.0
2018-Jun-16 15:29N 59°55' E 030°13'0 0.0
2018-Jun-16 14:59N 59°55' E 030°13'0 0.0
2018-Jun-16 14:29N 59°55' E 030°13'0 0.0
2018-Jun-16 13:59N 59°55' E 030°13'0 0.0
2018-Jun-16 13:29N 59°55' E 030°13'0 0.0
2018-Jun-16 12:59N 59°55' E 030°13'0 0.0
2018-Jun-16 12:30N 59°55' E 030°13'1 2.7
2018-Jun-16 11:56N 59°53' E 030°12'1 1.3
2018-Jun-16 11:30N 59°53' E 030°11'0 0.8
2018-Jun-16 11:00N 59°53' E 030°12'2 4.0
2018-Jun-16 10:29N 59°55' E 030°14'0 0.5
2018-Jun-16 10:00N 59°55' E 030°13'0 0.0
2018-Jun-16 09:30N 59°55' E 030°13'0 0.0
2018-Jun-16 09:00N 59°55' E 030°13'0 0.0
2018-Jun-16 08:30N 59°55' E 030°13'0 0.0
2018-Jun-16 08:00N 59°55' E 030°13'0 0.0
2018-Jun-16 07:30N 59°55' E 030°13'0 0.0
2018-Jun-16 07:00N 59°55' E 030°13'0 0.0
2018-Jun-16 06:27N 59°55' E 030°13'0 0.0
2018-Jun-16 06:00N 59°55' E 030°13'0 0.0
2018-Jun-16 05:30N 59°55' E 030°13'0 0.0
2018-Jun-16 04:57N 59°55' E 030°13'0 0.0
2018-Jun-16 04:24N 59°55' E 030°13'0 0.0
2018-Jun-16 04:00N 59°55' E 030°13'2 3.1
2018-Jun-16 03:23N 59°53' E 030°11'0 0.6
2018-Jun-16 02:55N 59°53' E 030°11'1 1.9
2018-Jun-16 02:29N 59°53' E 030°10'2 4.3
2018-Jun-16 01:57N 59°55' E 030°14'0 0.4
2018-Jun-16 01:29N 59°55' E 030°13'0 0.0
2018-Jun-16 00:59N 59°55' E 030°13'0 0.0
2018-Jun-16 00:23N 59°55' E 030°13'0 0.0
2018-Jun-15 23:53N 59°55' E 030°13'0 0.0
2018-Jun-15 23:20N 59°55' E 030°13'0 0.0
2018-Jun-15 22:35N 59°55' E 030°13'0 0.0
2018-Jun-15 22:29N 59°55' E 030°13'0 0.0
2018-Jun-15 21:41N 59°55' E 030°13'0 0.0
2018-Jun-15 21:26N 59°55' E 030°13'0 0.0
2018-Jun-15 20:59N 59°55' E 030°13'0 0.0
2018-Jun-15 20:20N 59°55' E 030°13'0 0.0
2018-Jun-15 19:47N 59°55' E 030°13'0 0.0
2018-Jun-15 19:29N 59°55' E 030°13'0 0.0
2018-Jun-15 18:50N 59°55' E 030°13'0 0.0
2018-Jun-15 18:29N 59°55' E 030°13'0 0.0
2018-Jun-15 17:59N 59°55' E 030°13'0 0.0
2018-Jun-15 17:26N 59°55' E 030°13'0 0.0
2018-Jun-15 16:59N 59°55' E 030°13'0 0.0
2018-Jun-15 16:17N 59°55' E 030°13'0 0.0
2018-Jun-15 15:56N 59°55' E 030°13'0 0.0
2018-Jun-15 15:23N 59°55' E 030°13'0 0.0
2018-Jun-15 14:51N 59°55' E 030°13'0 0.0
2018-Jun-15 14:23N 59°55' E 030°13'0 0.0
2018-Jun-15 13:50N 59°55' E 030°13'0 0.0
2018-Jun-15 13:29N 59°55' E 030°13'0 0.0
2018-Jun-15 12:59N 59°55' E 030°13'0 0.0
2018-Jun-15 12:26N 59°55' E 030°13'0 0.0
2018-Jun-15 11:59N 59°55' E 030°13'0 0.0
2018-Jun-15 11:29N 59°55' E 030°13'0 0.0
2018-Jun-15 10:59N 59°55' E 030°13'0 0.0
2018-Jun-15 10:29N 59°55' E 030°13'0 0.0
2018-Jun-15 09:59N 59°55' E 030°13'0 0.0
2018-Jun-15 09:29N 59°55' E 030°13'0 0.0
2018-Jun-15 08:59N 59°55' E 030°13'0 0.0
2018-Jun-15 08:29N 59°55' E 030°13'0 0.0
2018-Jun-15 07:59N 59°55' E 030°13'0 0.0
2018-Jun-15 07:29N 59°55' E 030°13'0 0.0
2018-Jun-15 06:59N 59°55' E 030°13'0 0.0
2018-Jun-15 06:23N 59°55' E 030°13'0 0.0
2018-Jun-15 05:59N 59°55' E 030°13'0 0.0
2018-Jun-15 05:25N 59°55' E 030°13'0 0.0
2018-Jun-15 04:59N 59°55' E 030°13'0 0.0
2018-Jun-15 04:29N 59°55' E 030°13'0 0.0
2018-Jun-15 03:56N 59°55' E 030°13'0 0.0
2018-Jun-15 03:29N 59°55' E 030°13'0 0.0
2018-Jun-15 02:59N 59°55' E 030°13'0 0.0
2018-Jun-15 02:29N 59°55' E 030°13'0 0.0
2018-Jun-15 01:59N 59°55' E 030°13'0 0.0
2018-Jun-15 01:23N 59°55' E 030°13'0 0.0
2018-Jun-15 00:56N 59°55' E 030°13'0 0.0
2018-Jun-15 00:29N 59°55' E 030°13'0 0.0
2018-Jun-14 23:59N 59°55' E 030°13'0 0.0
2018-Jun-14 23:26N 59°55' E 030°13'0 0.0
2018-Jun-14 22:56N 59°55' E 030°13'0 0.0
2018-Jun-14 22:23N 59°55' E 030°13'0 0.0
2018-Jun-14 21:59N 59°55' E 030°13'0 0.0
2018-Jun-14 21:26N 59°55' E 030°13'0 0.0
2018-Jun-14 21:00N 59°55' E 030°13'0 0.7
2018-Jun-14 20:28N 59°55' E 030°14'1 2.7
2018-Jun-14 20:00N 59°54' E 030°13'1 2.8
2018-Jun-14 19:29N 59°52' E 030°13'0 0.0
2018-Jun-14 19:00N 59°52' E 030°13'2 4.7
2018-Jun-14 18:30N 59°54' E 030°14'0 0.3
2018-Jun-14 17:57N 59°55' E 030°13'0 0.0
2018-Jun-14 17:27N 59°55' E 030°13'0 0.0
2018-Jun-14 17:00N 59°55' E 030°13'0 0.0
2018-Jun-14 16:30N 59°55' E 030°13'2 3.9
2018-Jun-14 16:00N 59°53' E 030°11'0 0.2
2018-Jun-14 15:26N 59°53' E 030°11'0 1.2
2018-Jun-14 15:00N 59°53' E 030°12'1 3.0
2018-Jun-14 14:31N 59°55' E 030°13'0 0.0
2018-Jun-14 13:54N 59°55' E 030°13'0 0.0
2018-Jun-14 13:30N 59°55' E 030°13'0 0.0
2018-Jun-14 12:57N 59°55' E 030°13'0 0.0
2018-Jun-14 12:30N 59°55' E 030°13'0 0.0
2018-Jun-14 12:00N 59°55' E 030°13'0 0.0
2018-Jun-14 10:27N 59°55' E 030°13'0 0.0
2018-Jun-14 09:51N 59°55' E 030°13'0 0.0
2018-Jun-14 09:24N 59°55' E 030°13'0 0.0
2018-Jun-14 09:00N 59°55' E 030°13'0 0.0
2018-Jun-14 06:09N 59°55' E 030°13'0 0.0
2018-Jun-14 05:39N 59°55' E 030°13'1 0.7
2018-Jun-14 04:55N 59°54' E 030°13'1 3.3
2018-Jun-14 04:30N 59°53' E 030°12'1 1.2
2018-Jun-14 03:52N 59°53' E 030°11'2 4.5
2018-Jun-14 03:29N 59°54' E 030°14'0 0.5
2018-Jun-14 02:55N 59°55' E 030°13'0 0.0
2018-Jun-14 02:28N 59°55' E 030°13'0 0.0
2018-Jun-14 01:58N 59°55' E 030°13'0 0.0
2018-Jun-14 01:22N 59°55' E 030°13'0 0.0
2018-Jun-14 00:04N 59°55' E 030°13'0 0.0
2018-Jun-13 23:46N 59°55' E 030°13'0 0.0
2018-Jun-13 22:49N 59°55' E 030°13'0 0.0
2018-Jun-13 22:19N 59°55' E 030°13'0 0.0
2018-Jun-13 21:58N 59°55' E 030°13'0 0.0
2018-Jun-13 15:38N 59°55' E 030°13'0 0.1
2018-Jun-13 14:36N 59°55' E 030°14'0 0.0
2018-Jun-13 14:18N 59°55' E 030°14'0 0.2
2018-Jun-13 13:30N 59°55' E 030°13'0 0.4
2018-Jun-13 12:59N 59°55' E 030°14'0 0.4
2018-Jun-13 12:24N 59°55' E 030°14'0 0.3
2018-Jun-13 10:56N 59°55' E 030°13'0 0.3
2018-Jun-13 10:17N 59°55' E 030°14'0 0.3
2018-Jun-13 09:58N 59°55' E 030°14'0 0.2
2018-Jun-13 09:14N 59°55' E 030°13'0 0.0
2018-Jun-13 08:50N 59°55' E 030°13'0 0.2
2018-Jun-13 07:53N 59°55' E 030°14'0 0.3
2018-Jun-13 07:25N 59°55' E 030°14'0 0.1
2018-Jun-13 06:31N 59°55' E 030°13'0 0.0
2018-Jun-13 06:25N 59°55' E 030°13'0 0.0
2018-Jun-13 05:00N 59°55' E 030°13'0 0.0
2018-Jun-13 04:28N 59°55' E 030°13'0 0.0
2018-Jun-13 04:00N 59°55' E 030°13'0 0.0
2018-Jun-13 03:22N 59°55' E 030°13'0 0.0
2018-Jun-13 02:50N 59°55' E 030°13'0 0.0
2018-Jun-13 02:18N 59°55' E 030°13'0 0.0
2018-Jun-13 01:17N 59°55' E 030°13'0 0.0
2018-Jun-13 00:36N 59°55' E 030°13'0 0.0
2018-Jun-13 00:22N 59°55' E 030°13'0 0.0
2018-Jun-12 23:03N 59°55' E 030°13'0 0.0
2018-Jun-12 22:52N 59°55' E 030°13'0 0.0
2018-Jun-12 22:19N 59°55' E 030°13'0 0.0
2018-Jun-12 19:07N 59°55' E 030°13'0 0.0
2018-Jun-12 18:42N 59°55' E 030°13'0 0.4
2018-Jun-12 18:12N 59°55' E 030°14'1 3.8
2018-Jun-12 18:00N 59°54' E 030°13'1 1.2
2018-Jun-12 17:27N 59°53' E 030°12'1 2.0
2018-Jun-12 16:56N 59°52' E 030°12'0 0.0
2018-Jun-12 16:14N 59°52' E 030°12'2 4.6
2018-Jun-12 15:48N 59°54' E 030°13'0 0.1
2018-Jun-12 10:34N 59°55' E 030°13'0 0.1
2018-Jun-12 09:41N 59°55' E 030°14'  

Dump ship's entire track history